CheckWX is a tool to help pilots better visualize weather data.  It is not intended as a substitute for an official pre-flight weather briefing.

21:05:33 UTC

KSMN METAR
Lemhi County Airport
Salmon, Idaho, USA
Current

10 mins ago

KSMN 232056Z AUTO 00000KT 2 1/2SM -SN BKN030 OVC035 M03/M07 A3002 RMK AO2 VIS 1 1/4V4 UPB06E13SNE06B13 SLP220 P0000 60000 T10331072 56008 FZRANO
Observed
Feb-23 @ 20:56 UTC
Visibility
2 1/2 SM
Flight Rules
IFR
Conditions
Light Snow
Cloud Levels
  • Broken at 3,000' AGL
  • Overcast at 3,500' AGL
Temperature
-3°C / 27°F
Dewpoint
-7°C / 19°F
Humidity
74%
Altimeter
30.02" Hg
Pressure
1022 hPa
Current Rain
0.01"
Previous

20 mins ago

KSMN 232046Z AUTO 00000KT 1 3/4SM -SN FEW021 SCT029 OVC035 M04/M08 A3003 RMK AO2 VIS 1 1/4V3 UPB06E13SNE06B13 P0000 FZRANO
Observed
Feb-23 @ 20:46 UTC
Visibility
1 3/4 SM
Flight Rules
IFR
Conditions
Light Snow
Cloud Levels
  • Few at 2,100' AGL
  • Scattered at 2,900' AGL
  • Overcast at 3,500' AGL
Temperature
-4°C / 25°F
Dewpoint
-8°C / 18°F
Humidity
74%
Altimeter
30.03" Hg
Pressure
1016.92 hPa
Current Rain
0.01"
Previous

33 mins ago

KSMN 232033Z AUTO 00000KT 1 1/4SM -SN FEW021 BKN028 OVC038 M04/M08 A3003 RMK AO2 UPB06E13SNE06B13 P0000 FZRANO
Observed
Feb-23 @ 20:33 UTC
Visibility
1 1/4 SM
Flight Rules
IFR
Conditions
Light Snow
Cloud Levels
  • Few at 2,100' AGL
  • Broken at 2,800' AGL
  • Overcast at 3,800' AGL
Temperature
-4°C / 25°F
Dewpoint
-8°C / 18°F
Humidity
74%
Altimeter
30.03" Hg
Pressure
1016.92 hPa
Current Rain
0.01"